Brandenburg, KY (40108)

10:58 PM EDT on April 25, 2015 (GMT -0400)
Old Weldon | | Change Station
CLOSE
Current Station
Personal Weather Station
Location: Brandenburg, KY
Elevation: 636 ft
Nearby Weather Stations

Elev 636 ft 37.97 °N, 86.13 °W | Updated 1 minute ago

Overcast
Overcast
50.3 °F
Feels Like 50.3 °F
N
1.0
Wind Variable Wind from ENE
Gusts 2.0 mph

Today
High -- | Low -- °F
--% Chance of Precip.
Yesterday
High -- | Low -- °F
Precip. -- in
6:56 AM 8:29 PM
Waxing Crescent, 51% visible
Pressure 29.55 in
Visibility 10.0 miles
Clouds Overcast 500 ft
Dew Point 49 °F
Humidity 96%
Rainfall 0.49 in
Snow Depth Not available.
UV 0 out of 12
Pollen 5.90 out of 12
Air Quality Not available.
Flu Activity Local Activity
METAR KFTK 260158Z 02008KT 10SM -RA OVC005 11/10 A2954 RMK AO2A SLP006 P0005 T01090101

More Conditions Fewer Conditions

Pressure 29.55 in
Visibility 10.0 miles
Clouds Overcast 500 ft
Dew Point 49 °F
Humidity 96%
Rainfall 0.49 in
Snow Depth Not available.
UV 0 out of 12
Pollen 5.90 out of 12
Air Quality Not available.
Flu Activity Local Activity
METAR KFTK 260158Z 02008KT 10SM -RA OVC005 11/10 A2954 RMK AO2A SLP006 P0005 T01090101

More Conditions Fewer Conditions

10-Day Weather Forecast

Almanac

Astronomy

Apr. 25, 2015 Rise Set
Actual Time
Civil Twilight
Nautical Twilight
Astronomical Twilight
Moon
Length of Visible Light
Length of Day
Tomorrow will be .
, % of the Moon is Illuminated

Today's Extremes

State Highs State Lows

Community

WunderPhotos

Upload Photos

1,816,909 photos uploaded!

WunderBlogs® & News

Nearby

Air Quality

  Air Quality AQ Index Pollutant
Not available.

Snow Depth

Station Depth Elevation

Earthquake Activity

City Distance Mag. Time & Date
Minimum magnitude displayed is 2.5.

Coastal Water Temperatures

Place Temperature

Stations

Nearby Weather Stations

Station Location Temp. Windchill Dew Point Humidity Wind Precip. Elev Updated Type